Terminal Aerodrome Forecast
Issued by NWS

Home | Current Version | Previous Version | Text Only | Print | Product List | Glossary On
Versions: 1 2 3 4 5 6 7 8 9 10 11 12 13 14 15 16 17 18 19 20 21
000
FTUS43 KDLH 221700 RRA
TAFHIB
TAF
KHIB 221740Z 2218/2318 13008KT 3SM -SN BR OVC005
      TEMPO 2218/2221 1 1/2SM -SN BR OVC003
     FM222200 11009KT 2SM -DZ BR OVC006
     FM230200 08008KT 1SM -DZSN BR OVC004
      TEMPO 2305/2309 1/2SM -DZ FG OVC003
     FM230900 04009KT 1 1/2SM BR OVC004
     FM231500 12009G14KT 3SM -SN BR SCT004 OVC011=

USA.gov is the U.S. government's official web portal to all federal, state and local government web resources and services.